createdAt,value
2018-01-14T00:02:09.292Z,62.22
2018-01-14T00:04:38.691Z,62.09
2018-01-14T00:07:08.475Z,62.03
2018-01-14T00:09:37.588Z,62.33
2018-01-14T00:12:06.979Z,62.47
2018-01-14T00:14:36.175Z,62.63
2018-01-14T00:17:05.399Z,62.89
2018-01-14T00:19:34.754Z,63.18
2018-01-14T00:22:05.113Z,63.24
2018-01-14T00:24:34.258Z,63.53
2018-01-14T00:27:03.951Z,63.36
2018-01-14T00:29:33.051Z,63.44
2018-01-14T00:32:03.237Z,63.69
2018-01-14T00:34:32.614Z,63.91
2018-01-14T00:37:02.815Z,64.02
2018-01-14T00:39:31.909Z,63.97
2018-01-14T00:42:03.322Z,64.08
2018-01-14T00:44:32.398Z,64.11
2018-01-14T00:47:02.065Z,64.42
2018-01-14T00:49:31.602Z,64.67
2018-01-14T00:52:00.732Z,64.93
2018-01-14T00:54:30.046Z,65.15
2018-01-14T00:56:59.545Z,64.82
2018-01-14T00:59:28.738Z,64.68
2018-01-14T01:01:57.860Z,64.59
2018-01-14T01:04:27.276Z,64.62
2018-01-14T01:06:56.388Z,64.64
2018-01-14T01:09:25.494Z,64.65
2018-01-14T01:11:55.921Z,64.59
2018-01-14T01:14:25.052Z,64.83
2018-01-14T01:16:55.536Z,64.96
2018-01-14T01:19:24.654Z,65.25
2018-01-14T01:21:54.314Z,65.45
2018-01-14T01:24:23.382Z,65.77
2018-01-14T01:26:52.651Z,65.79
2018-01-14T01:29:22.213Z,65.52
2018-01-14T01:31:52.457Z,65.51
2018-01-14T01:34:21.568Z,65.75
2018-01-14T01:36:50.703Z,65.48
2018-01-14T01:39:19.883Z,65.43
2018-01-14T01:41:49.488Z,65.35
2018-01-14T01:44:18.759Z,65.30
2018-01-14T01:46:48.051Z,65.11
2018-01-14T01:49:17.290Z,65.16
2018-01-14T01:51:46.534Z,64.86
2018-01-14T01:54:15.632Z,64.99
2018-01-14T01:56:45.306Z,64.71
2018-01-14T01:59:14.471Z,64.85
2018-01-14T02:01:43.561Z,64.77
2018-01-14T02:04:13.150Z,65.21
2018-01-14T02:06:42.439Z,65.07
2018-01-14T02:09:11.577Z,65.13
2018-01-14T02:11:41.062Z,65.14
2018-01-14T02:14:10.629Z,64.98
2018-01-14T02:16:40.541Z,65.31
2018-01-14T02:19:10.274Z,65.21
2018-01-14T02:21:39.395Z,65.57
2018-01-14T02:24:08.538Z,65.44
2018-01-14T02:26:38.502Z,65.87
2018-01-14T02:29:08.342Z,66.06
2018-01-14T02:31:37.450Z,66.70
2018-01-14T02:34:06.821Z,66.72
2018-01-14T02:36:35.930Z,66.87
2018-01-14T02:39:05.836Z,67.11
2018-01-14T02:41:35.225Z,67.43
2018-01-14T02:44:05.115Z,67.46
2018-01-14T02:46:34.221Z,67.38
2018-01-14T02:49:03.929Z,67.23
2018-01-14T02:51:33.079Z,66.98
2018-01-14T02:54:03.132Z,66.75
2018-01-14T02:56:32.649Z,66.28
2018-01-14T02:59:03.111Z,66.71
2018-01-14T03:01:32.245Z,66.78
2018-01-14T03:04:02.070Z,66.80
2018-01-14T03:06:31.148Z,66.74
2018-01-14T03:09:00.268Z,66.42
2018-01-14T03:15:01.098Z,66.27
2018-01-14T03:17:30.231Z,66.50
2018-01-14T03:19:59.345Z,66.37
2018-01-14T03:22:28.490Z,66.73
2018-01-14T03:24:57.893Z,67.01
2018-01-14T03:27:27.023Z,66.90
2018-01-14T03:29:57.515Z,67.31
2018-01-14T03:32:26.926Z,67.11
2018-01-14T03:34:56.042Z,67.61
2018-01-14T03:37:25.138Z,67.49
2018-01-14T03:39:54.634Z,67.41
2018-01-14T03:42:23.728Z,67.62
2018-01-14T03:44:52.870Z,67.60
2018-01-14T03:47:21.946Z,67.46
2018-01-14T03:49:51.078Z,67.27
2018-01-14T03:52:20.526Z,67.65
2018-01-14T03:54:49.919Z,68.05
2018-01-14T03:57:19.002Z,68.27
2018-01-14T03:59:49.099Z,68.05
2018-01-14T04:02:18.211Z,68.22
2018-01-14T04:04:47.326Z,68.17
2018-01-14T04:07:16.756Z,68.15
2018-01-14T04:09:46.044Z,68.07
2018-01-14T04:12:15.144Z,68.24
2018-01-14T04:14:44.238Z,68.17
2018-01-14T04:17:13.353Z,67.93
2018-01-14T04:19:42.493Z,68.24
2018-01-14T04:22:11.898Z,68.47
2018-01-14T04:24:41.276Z,68.57
2018-01-14T04:27:10.371Z,68.39
2018-01-14T04:29:39.789Z,68.60
2018-01-14T04:32:08.881Z,68.37
2018-01-14T04:34:37.988Z,68.24
2018-01-14T04:37:07.781Z,67.91
2018-01-14T04:39:36.874Z,67.85
2018-01-14T04:42:06.022Z,67.90
2018-01-14T04:44:35.407Z,68.11
2018-01-14T04:47:04.559Z,68.25
2018-01-14T04:49:33.641Z,68.24
2018-01-14T04:52:04.842Z,68.43
2018-01-14T04:54:34.003Z,68.33
2018-01-14T04:57:03.068Z,68.33
2018-01-14T04:59:32.442Z,68.53
2018-01-14T05:02:02.862Z,68.74
2018-01-14T05:04:31.970Z,68.36
2018-01-14T05:07:01.063Z,68.24
2018-01-14T05:09:30.152Z,68.15
2018-01-14T05:11:59.564Z,68.17
2018-01-14T05:14:29.113Z,68.26
2018-01-14T05:16:58.187Z,67.87
2018-01-14T05:19:27.277Z,67.88
2018-01-14T05:21:56.420Z,67.71
2018-01-14T05:24:25.522Z,67.50
2018-01-14T05:26:54.643Z,67.05
2018-01-14T05:29:24.084Z,66.92
2018-01-14T05:31:53.217Z,66.83
2018-01-14T05:34:22.327Z,66.88
2018-01-14T05:36:51.785Z,66.97
2018-01-14T05:39:20.902Z,67.22
2018-01-14T05:41:50.580Z,67.44
2018-01-14T05:44:20.030Z,67.32
2018-01-14T05:46:49.376Z,67.29
2018-01-14T05:49:18.498Z,67.24
2018-01-14T05:51:47.939Z,66.97
2018-01-14T05:54:17.022Z,68.10
2018-01-14T05:56:46.233Z,66.84
2018-01-14T05:59:15.663Z,66.75
2018-01-14T06:01:44.849Z,66.53
2018-01-14T06:04:13.929Z,66.87
2018-01-14T06:06:43.423Z,66.91
2018-01-14T06:09:12.859Z,66.66
2018-01-14T06:11:41.961Z,66.54
2018-01-14T06:14:11.058Z,66.99
2018-01-14T06:16:40.149Z,67.11
2018-01-14T06:19:09.536Z,66.65
2018-01-14T06:21:38.665Z,66.54
2018-01-14T06:24:07.843Z,66.37
2018-01-14T06:26:37.259Z,66.33
2018-01-14T06:29:06.391Z,66.42
2018-01-14T06:31:35.556Z,66.74
2018-01-14T06:34:05.795Z,66.38
2018-01-14T06:36:34.979Z,66.52
2018-01-14T06:39:04.466Z,66.58
2018-01-14T06:41:33.975Z,66.20
2018-01-14T06:44:03.789Z,66.18
2018-01-14T06:46:32.927Z,66.12
2018-01-14T06:49:02.777Z,65.95
2018-01-14T06:51:31.894Z,65.57
2018-01-14T06:54:01.414Z,65.56
2018-01-14T06:56:30.808Z,65.25
2018-01-14T06:58:59.985Z,64.96
2018-01-14T07:01:29.090Z,64.76
2018-01-14T07:03:58.408Z,64.84
2018-01-14T07:06:27.511Z,64.87
2018-01-14T07:08:56.931Z,65.04
2018-01-14T07:11:26.051Z,64.52
2018-01-14T07:13:55.357Z,64.31
2018-01-14T07:16:24.599Z,64.48
2018-01-14T07:18:54.202Z,64.60
2018-01-14T07:21:23.619Z,64.19
2018-01-14T07:23:52.729Z,64.17
2018-01-14T07:26:21.843Z,64.12
2018-01-14T07:28:51.243Z,64.19
2018-01-14T07:31:20.370Z,64.18
2018-01-14T07:33:49.976Z,64.21
2018-01-14T07:36:19.400Z,64.36
2018-01-14T07:38:48.576Z,64.08
2018-01-14T07:41:17.696Z,63.78
2018-01-14T07:43:47.106Z,63.61
2018-01-14T07:46:16.204Z,63.46
2018-01-14T07:48:45.299Z,63.72
2018-01-14T07:51:14.727Z,63.63
2018-01-14T07:53:43.853Z,63.86
2018-01-14T07:56:12.985Z,63.76
2018-01-14T07:58:42.608Z,63.80
2018-01-14T08:01:11.766Z,63.60
2018-01-14T08:03:40.897Z,63.43
2018-01-14T08:06:10.378Z,63.52
2018-01-14T08:08:39.483Z,63.48
2018-01-14T08:11:08.575Z,63.35
2018-01-14T08:13:38.006Z,63.41
2018-01-14T08:16:07.118Z,63.31
2018-01-14T08:18:36.250Z,63.36
2018-01-14T08:21:05.666Z,63.14
2018-01-14T08:23:34.783Z,62.81
2018-01-14T08:26:04.522Z,62.74
2018-01-14T08:28:33.938Z,62.75
2018-01-14T08:31:04.327Z,62.60
2018-01-14T08:33:33.446Z,62.34
2018-01-14T08:36:05.167Z,62.26
2018-01-14T08:38:34.314Z,62.38
2018-01-14T08:41:05.108Z,62.51
2018-01-14T08:43:34.503Z,62.51
2018-01-14T08:46:04.583Z,61.80
2018-01-14T08:48:33.728Z,62.00
2018-01-14T08:51:03.013Z,62.00
2018-01-14T08:53:32.122Z,61.61
2018-01-14T08:56:02.843Z,61.74
2018-01-14T08:58:32.013Z,61.62
2018-01-14T09:01:01.683Z,61.44
2018-01-14T09:03:30.834Z,61.48
2018-01-14T09:05:59.954Z,61.64
2018-01-14T09:08:29.370Z,61.35
2018-01-14T09:10:58.478Z,60.69
2018-01-14T09:13:27.610Z,60.78
2018-01-14T09:15:58.252Z,60.85
2018-01-14T09:18:27.346Z,60.28
2018-01-14T09:20:56.462Z,59.96
2018-01-14T09:23:25.872Z,60.22
2018-01-14T09:25:55.074Z,60.34
2018-01-14T09:28:24.183Z,59.93
2018-01-14T09:31:04.716Z,59.80
2018-01-14T09:33:40.791Z,59.36
2018-01-14T09:36:13.579Z,59.07
2018-01-14T09:38:45.916Z,59.17
2018-01-14T09:41:15.605Z,59.24
2018-01-14T09:43:44.687Z,58.89
2018-01-14T09:46:21.200Z,59.00
2018-01-14T09:48:50.654Z,58.68
2018-01-14T09:51:22.796Z,58.30
2018-01-14T09:53:52.138Z,57.95
2018-01-14T09:56:21.594Z,58.06
2018-01-14T09:58:51.582Z,58.21
2018-01-14T10:01:20.930Z,58.07
2018-01-14T10:03:50.375Z,58.18
2018-01-14T10:06:19.482Z,57.75
2018-01-14T10:08:48.681Z,57.58
2018-01-14T10:11:19.137Z,57.36
2018-01-14T10:13:48.268Z,56.93
2018-01-14T10:16:17.372Z,56.91
2018-01-14T10:18:47.003Z,56.98
2018-01-14T10:21:16.123Z,56.92
2018-01-14T10:23:45.233Z,56.70
2018-01-14T10:26:14.802Z,56.74
2018-01-14T10:28:43.902Z,57.16
2018-01-14T10:31:13.022Z,57.22
2018-01-14T10:33:42.448Z,56.93
2018-01-14T10:36:11.601Z,56.85
2018-01-14T10:38:40.699Z,56.45
2018-01-14T10:41:11.158Z,56.79
2018-01-14T10:43:40.279Z,56.55
2018-01-14T10:46:09.433Z,56.57
2018-01-14T10:48:38.534Z,56.26
2018-01-14T10:51:07.696Z,56.24
2018-01-14T10:53:37.116Z,56.09
2018-01-14T10:56:06.914Z,56.11
2018-01-14T10:58:36.030Z,55.75
2018-01-14T11:01:08.845Z,55.70
2018-01-14T11:03:45.254Z,56.25
2018-01-14T11:06:14.499Z,55.63
2018-01-14T11:08:43.592Z,55.04
2018-01-14T11:11:12.690Z,54.63
2018-01-14T11:13:41.870Z,54.54
2018-01-14T11:16:10.972Z,54.75
2018-01-14T11:18:40.143Z,54.26
2018-01-14T11:21:09.514Z,54.21
2018-01-14T11:23:38.620Z,54.46
2018-01-14T11:26:08.617Z,54.00
2018-01-14T11:28:38.063Z,53.55
2018-01-14T11:31:07.581Z,53.78
2018-01-14T11:33:36.689Z,53.00
2018-01-14T11:36:07.236Z,52.40
2018-01-14T11:38:36.348Z,52.49
2018-01-14T11:41:05.574Z,52.25
2018-01-14T11:43:35.027Z,52.49
2018-01-14T11:46:04.836Z,52.95
2018-01-14T11:48:34.034Z,52.66
2018-01-14T11:51:03.367Z,52.71
2018-01-14T11:53:32.529Z,52.44
2018-01-14T11:56:04.468Z,52.31
2018-01-14T11:58:33.647Z,52.55
2018-01-14T12:01:03.619Z,52.46
2018-01-14T12:03:33.044Z,52.91
2018-01-14T12:06:03.247Z,52.64
2018-01-14T12:08:32.554Z,53.06
2018-01-14T12:11:02.119Z,52.33
2018-01-14T12:13:31.256Z,52.44
2018-01-14T12:16:00.986Z,51.54
2018-01-14T12:18:30.483Z,51.42
2018-01-14T12:20:59.729Z,51.18
2018-01-14T12:23:28.864Z,50.94
2018-01-14T12:25:58.290Z,51.88
2018-01-14T12:28:27.403Z,51.81
2018-01-14T12:30:56.731Z,51.66
2018-01-14T12:33:28.090Z,51.99
2018-01-14T12:35:57.331Z,51.63
2018-01-14T12:38:26.580Z,52.11
2018-01-14T12:40:56.601Z,52.04
2018-01-14T12:43:25.708Z,52.28
2018-01-14T12:45:54.897Z,52.29
2018-01-14T12:48:24.058Z,52.80
2018-01-14T12:50:53.238Z,52.67
2018-01-14T12:53:22.321Z,52.71
2018-01-14T12:55:54.679Z,52.51
2018-01-14T12:58:23.980Z,52.35
2018-01-14T13:00:53.115Z,52.16
2018-01-14T13:03:22.283Z,52.33
2018-01-14T13:05:52.827Z,52.31
2018-01-14T13:08:22.158Z,50.96
2018-01-14T13:10:52.934Z,50.89
2018-01-14T13:13:22.091Z,50.37
2018-01-14T13:15:52.203Z,50.50
2018-01-14T13:18:21.767Z,50.71
2018-01-14T13:20:50.894Z,50.74
2018-01-14T13:23:19.993Z,49.87
2018-01-14T13:25:49.695Z,50.35
2018-01-14T13:28:18.870Z,50.02
2018-01-14T13:30:48.036Z,51.27
2018-01-14T13:33:17.606Z,50.44
2018-01-14T13:35:46.926Z,50.31
2018-01-14T13:38:16.146Z,50.14
2018-01-14T13:40:45.304Z,50.69
2018-01-14T13:43:14.426Z,50.47
2018-01-14T13:45:43.552Z,50.00
2018-01-14T13:48:12.671Z,50.90
2018-01-14T13:50:41.776Z,51.17
2018-01-14T13:53:11.061Z,51.60
2018-01-14T13:55:40.650Z,51.15
2018-01-14T13:58:10.258Z,51.96
2018-01-14T14:00:39.403Z,52.06
2018-01-14T14:03:08.867Z,51.72
2018-01-14T14:05:37.988Z,51.50
2018-01-14T14:08:07.098Z,51.98
2018-01-14T14:10:36.512Z,52.66
2018-01-14T14:13:05.779Z,52.56
2018-01-14T14:15:34.894Z,52.27
2018-01-14T14:18:06.300Z,52.27
2018-01-14T14:20:35.450Z,52.00
2018-01-14T14:23:05.763Z,51.93
2018-01-14T14:25:35.202Z,51.10
2018-01-14T14:28:05.468Z,50.91
2018-01-14T14:30:34.586Z,51.08
2018-01-14T14:33:03.990Z,51.05
2018-01-14T14:35:33.198Z,51.58
2018-01-14T14:38:03.174Z,52.82
2018-01-14T14:40:32.324Z,52.61
2018-01-14T14:43:02.301Z,52.97
2018-01-14T14:45:31.558Z,52.94
2018-01-14T14:48:00.655Z,53.90
2018-01-14T14:50:29.831Z,54.23
2018-01-14T14:52:59.270Z,54.58
2018-01-14T14:55:28.381Z,54.67
2018-01-14T14:57:57.527Z,54.79
2018-01-14T15:00:27.010Z,54.38
2018-01-14T15:02:56.426Z,54.91
2018-01-14T15:05:25.577Z,55.07
2018-01-14T15:07:55.539Z,54.96
2018-01-14T15:10:24.669Z,54.75
2018-01-14T15:12:56.046Z,55.45
2018-01-14T15:15:25.576Z,55.62
2018-01-14T15:17:54.776Z,55.84
2018-01-14T15:20:23.969Z,55.65
2018-01-14T15:22:53.144Z,55.88
2018-01-14T15:25:22.587Z,56.31
2018-01-14T15:27:51.814Z,55.86
2018-01-14T15:30:20.955Z,55.62
2018-01-14T15:32:51.166Z,55.42
2018-01-14T15:35:20.271Z,55.37
2018-01-14T15:37:50.068Z,55.48
2018-01-14T15:40:19.193Z,55.27
2018-01-14T15:42:48.528Z,55.64
2018-01-14T15:45:17.950Z,55.43
2018-01-14T15:47:47.145Z,55.59
2018-01-14T15:50:16.280Z,55.71
2018-01-14T15:52:46.405Z,55.97
2018-01-14T15:55:15.618Z,55.97
2018-01-14T15:57:44.737Z,55.93
2018-01-14T16:00:15.847Z,56.11
2018-01-14T16:02:44.983Z,55.94
2018-01-14T16:05:14.110Z,56.26
2018-01-14T16:07:43.562Z,56.37
2018-01-14T16:10:12.712Z,56.75
2018-01-14T16:12:41.820Z,56.82
2018-01-14T16:15:11.291Z,57.15
2018-01-14T16:17:40.444Z,57.03
2018-01-14T16:20:09.644Z,57.29
2018-01-14T16:22:39.199Z,57.77
2018-01-14T16:25:08.543Z,57.85
2018-01-14T16:27:37.764Z,57.85
2018-01-14T16:30:07.222Z,57.97
2018-01-14T16:32:36.371Z,58.21
2018-01-14T16:35:05.525Z,58.30
2018-01-14T16:37:34.983Z,58.28
2018-01-14T16:40:04.933Z,58.59
2018-01-14T16:42:34.051Z,58.80
2018-01-14T16:45:03.607Z,59.01
2018-01-14T16:47:32.825Z,59.23
2018-01-14T16:50:05.092Z,59.35
2018-01-14T16:52:36.508Z,59.15
2018-01-14T16:55:05.691Z,59.58
2018-01-14T16:57:34.780Z,59.70
2018-01-14T17:00:06.703Z,59.42
2018-01-14T17:02:35.846Z,59.36
2018-01-14T17:05:05.108Z,59.45
2018-01-14T17:07:34.391Z,59.75
2018-01-14T17:10:04.842Z,60.11
2018-01-14T17:12:35.540Z,60.14
2018-01-14T17:15:04.979Z,60.07
2018-01-14T17:17:34.144Z,60.31
2018-01-14T17:20:06.689Z,60.31
2018-01-14T17:22:36.383Z,60.35
2018-01-14T17:25:05.875Z,60.30
2018-01-14T17:27:35.565Z,60.65
2018-01-14T17:30:05.901Z,60.95
2018-01-14T17:32:35.133Z,60.84
2018-01-14T17:35:04.826Z,60.87
2018-01-14T17:37:34.050Z,61.01
2018-01-14T17:40:04.119Z,60.68
2018-01-14T17:42:33.716Z,60.97
2018-01-14T17:45:03.277Z,61.09
2018-01-14T17:47:32.464Z,61.22
2018-01-14T17:50:03.931Z,61.22
2018-01-14T17:52:33.175Z,61.08
2018-01-14T17:55:02.800Z,61.10
2018-01-14T17:57:31.951Z,61.31
2018-01-14T18:00:01.111Z,61.60
2018-01-14T18:02:30.551Z,61.69
2018-01-14T18:04:59.737Z,61.92
2018-01-14T18:07:28.875Z,61.77
2018-01-14T18:09:58.977Z,62.02
2018-01-14T18:12:28.124Z,61.78
2018-01-14T18:14:57.748Z,62.09
2018-01-14T18:17:26.999Z,62.31
2018-01-14T18:19:57.055Z,62.14
2018-01-14T18:22:26.661Z,62.26
2018-01-14T18:24:57.477Z,62.49
2018-01-14T18:27:26.606Z,62.41
2018-01-14T18:29:56.794Z,62.55
2018-01-14T18:32:25.922Z,62.90
2018-01-14T18:34:56.297Z,63.10
2018-01-14T18:37:25.874Z,63.02
2018-01-14T18:39:56.378Z,63.00
2018-01-14T18:42:25.514Z,63.17
2018-01-14T18:44:54.920Z,63.05
2018-01-14T18:47:24.066Z,63.25
2018-01-14T18:49:53.282Z,63.33
2018-01-14T18:52:23.087Z,63.43
2018-01-14T18:54:52.253Z,63.47
2018-01-14T18:57:21.516Z,63.54
2018-01-14T18:59:51.154Z,63.63
2018-01-14T19:02:20.357Z,63.57
2018-01-14T19:04:50.907Z,63.66
2018-01-14T19:07:20.587Z,63.81
2018-01-14T19:09:49.898Z,63.95
2018-01-14T19:12:19.389Z,63.95
2018-01-14T19:14:49.260Z,63.94
2018-01-14T19:17:18.414Z,64.01
2018-01-14T19:19:47.705Z,63.88
2018-01-14T19:22:17.151Z,63.96
2018-01-14T19:24:46.311Z,64.16
2018-01-14T19:27:15.418Z,64.08
2018-01-14T19:29:44.552Z,64.04
2018-01-14T19:32:13.641Z,63.89
2018-01-14T19:34:42.781Z,63.92
2018-01-14T19:37:12.305Z,63.76
2018-01-14T19:39:41.457Z,63.76
2018-01-14T19:42:10.610Z,63.81
2018-01-14T19:44:40.172Z,63.65
2018-01-14T19:47:09.386Z,63.54
2018-01-14T19:49:38.531Z,63.56
2018-01-14T19:52:08.086Z,63.85
2018-01-14T19:54:37.318Z,63.93
2018-01-14T19:57:06.426Z,64.01
2018-01-14T19:59:35.850Z,63.99
2018-01-14T20:02:05.997Z,63.75
2018-01-14T20:04:35.127Z,63.72
2018-01-14T20:07:04.698Z,63.96
2018-01-14T20:09:33.893Z,64.39
2018-01-14T20:12:05.399Z,64.41
2018-01-14T20:14:34.962Z,64.50
2018-01-14T20:17:04.906Z,64.41
2018-01-14T20:19:34.040Z,64.38
2018-01-14T20:22:04.768Z,64.76
2018-01-14T20:27:02.218Z,65.45
2018-01-14T20:29:32.071Z,65.56
2018-01-14T20:32:01.644Z,65.71
2018-01-14T20:34:30.759Z,65.79
2018-01-14T20:37:01.018Z,65.75
2018-01-14T20:39:30.224Z,65.71
2018-01-14T20:41:59.365Z,65.83
2018-01-14T20:44:28.961Z,65.85
2018-01-14T20:46:58.082Z,65.79
2018-01-14T20:49:27.185Z,65.72
2018-01-14T20:51:58.341Z,65.95
2018-01-14T20:54:27.484Z,66.09
2018-01-14T20:56:56.605Z,66.05
2018-01-14T20:59:25.717Z,66.19
2018-01-14T21:01:54.822Z,66.16
2018-01-14T21:04:27.055Z,65.87
2018-01-14T21:06:56.504Z,65.89
2018-01-14T21:09:25.607Z,65.68
2018-01-14T21:11:55.826Z,65.71
2018-01-14T21:14:26.628Z,65.74
2018-01-14T21:17:08.072Z,65.75
2018-01-14T21:19:48.617Z,65.69
2018-01-14T21:22:17.855Z,65.35
2018-01-14T21:24:47.961Z,65.63
2018-01-14T21:27:17.166Z,65.68
2018-01-14T21:29:46.298Z,65.49
2018-01-14T21:32:15.693Z,65.58
2018-01-14T21:34:44.867Z,65.72
2018-01-14T21:37:13.996Z,65.76
2018-01-14T21:39:43.255Z,65.73
2018-01-14T21:42:12.366Z,65.56
2018-01-14T21:44:41.942Z,65.86
2018-01-14T21:47:11.123Z,65.93
2018-01-14T21:49:40.253Z,65.82
2018-01-14T21:52:09.596Z,65.99
2018-01-14T21:54:38.764Z,66.20
2018-01-14T21:57:08.960Z,66.21
2018-01-14T21:59:38.078Z,66.42
2018-01-14T22:02:07.193Z,66.49
2018-01-14T22:04:36.602Z,66.50
2018-01-14T22:07:05.798Z,66.07
2018-01-14T22:09:34.895Z,66.08
2018-01-14T22:12:06.206Z,66.06
2018-01-14T22:14:35.539Z,65.97
2018-01-14T22:17:05.624Z,66.26
2018-01-14T22:19:35.096Z,65.83
2018-01-14T22:22:05.476Z,66.23
2018-01-14T22:24:34.582Z,65.97
2018-01-14T22:27:04.064Z,66.34
2018-01-14T22:29:33.253Z,66.29
2018-01-14T22:32:03.533Z,66.06
2018-01-14T22:34:32.618Z,66.13
2018-01-14T22:37:01.946Z,66.20
2018-01-14T22:39:31.327Z,66.43
2018-01-14T22:42:00.715Z,66.14
2018-01-14T22:44:30.170Z,66.16
2018-01-14T22:46:59.311Z,66.11
2018-01-14T22:49:28.403Z,66.22
2018-01-14T22:51:57.886Z,66.24
2018-01-14T22:54:27.006Z,66.84
2018-01-14T22:56:57.313Z,66.56
2018-01-14T22:59:26.778Z,66.33
2018-01-14T23:01:55.936Z,66.68
2018-01-14T23:04:25.041Z,66.54
2018-01-14T23:06:54.566Z,66.63
2018-01-14T23:09:23.655Z,66.72
2018-01-14T23:11:52.841Z,66.83
2018-01-14T23:14:22.272Z,67.05
2018-01-14T23:16:55.203Z,67.06
2018-01-14T23:19:24.342Z,66.93
2018-01-14T23:21:54.739Z,67.13
2018-01-14T23:24:24.106Z,67.06
2018-01-14T23:26:53.226Z,67.15
2018-01-14T23:29:22.727Z,67.32
2018-01-14T23:31:51.901Z,67.18
2018-01-14T23:34:21.029Z,67.30
2018-01-14T23:36:50.400Z,67.32
2018-01-14T23:39:19.533Z,67.25
2018-01-14T23:41:49.093Z,67.30
2018-01-14T23:44:18.224Z,67.47
2018-01-14T23:46:47.498Z,67.42
2018-01-14T23:49:16.959Z,67.36
2018-01-14T23:51:46.116Z,67.64
2018-01-14T23:54:15.953Z,67.71
2018-01-14T23:56:45.457Z,67.76
2018-01-14T23:59:18.862Z,67.79
